Time;durP1;ratioP1;P1;durP2;ratioP2;P2;SDS_P1;SDS_P2;PMS_P1;PMS_P2;Temp;Humidity;BMP_temperature;BMP_pressure;BME280_temperature;BME280_humidity;BME280_pressure;Samples;Min_cycle;Max_cycle;Signal;HPM_P1;HPM_P2
2023/08/05 00:00:39;;;;;;;1.80;1.70;;;17.80;99.90;;;18.13;80.81;100570.25;5024110;28;20647;-66
2023/08/05 00:03:06;;;;;;;1.77;1.43;;;17.80;99.90;;;18.14;80.96;100578.03;5022897;28;20665;-64
2023/08/05 00:05:33;;;;;;;1.43;1.43;;;17.80;99.90;;;18.14;80.90;100572.75;5031704;28;20761;-65
2023/08/05 00:08:00;;;;;;;1.50;1.40;;;17.80;99.90;;;18.11;81.17;100567.78;5024090;28;20744;-64
2023/08/05 00:10:27;;;;;;;1.70;1.70;;;17.80;99.90;;;18.11;81.24;100572.22;5024025;28;20719;-64
2023/08/05 00:12:54;;;;;;;1.47;1.47;;;17.80;99.90;;;18.10;81.48;100568.75;5025246;28;20659;-64
2023/08/05 00:15:21;;;;;;;1.70;1.60;;;17.80;99.90;;;18.07;81.04;100571.72;5024062;28;20811;-65
2023/08/05 00:17:48;;;;;;;1.30;1.30;;;17.80;99.90;;;18.04;81.31;100573.88;5031478;28;20675;-64
2023/08/05 00:20:15;;;;;;;2.03;1.40;;;17.70;99.90;;;18.02;81.24;100570.53;5030496;28;20691;-65
2023/08/05 00:22:42;;;;;;;1.80;1.70;;;17.70;99.90;;;18.01;81.22;100571.53;5029375;28;20671;-63
2023/08/05 00:25:09;;;;;;;1.63;1.53;;;17.70;99.90;;;17.99;81.43;100573.50;5026279;28;20676;-67
2023/08/05 00:27:36;;;;;;;1.60;1.60;;;17.70;99.90;;;17.96;81.69;100574.66;5031752;28;21250;-65
2023/08/05 00:30:03;;;;;;;1.37;1.37;;;17.70;99.90;;;17.94;81.71;100581.06;5028470;28;20696;-63
2023/08/05 00:32:34;;;;;;;1.67;1.57;;;17.60;99.90;;;17.93;81.67;100572.31;5025238;28;20632;-64
2023/08/05 00:35:01;;;;;;;2.97;1.57;;;17.60;99.90;;;17.92;81.56;100583.03;5026194;28;20632;-66
2023/08/05 00:37:28;;;;;;;1.63;1.53;;;17.60;99.90;;;17.91;81.90;100590.13;5020622;28;21241;-65
2023/08/05 00:39:54;;;;;;;1.30;1.20;;;17.60;99.90;;;17.88;82.04;100587.00;5029500;28;20640;-65
2023/08/05 00:42:21;;;;;;;1.07;1.07;;;17.60;99.90;;;17.84;82.24;100586.50;5031513;28;20629;-67
2023/08/05 00:44:48;;;;;;;1.50;1.50;;;17.50;99.90;;;17.80;82.31;100580.69;5029400;28;21069;-64
2023/08/05 00:47:20;;;;;;;1.33;1.23;;;17.50;99.90;;;17.78;82.41;100584.47;5018388;28;20711;-64
2023/08/05 00:49:51;;;;;;;1.03;1.03;;;17.50;99.90;;;17.75;82.89;100584.78;5032323;28;20655;-65
2023/08/05 00:52:22;;;;;;;1.23;1.23;;;17.50;99.90;;;17.73;83.09;100592.03;5026330;28;20661;-64
2023/08/05 00:54:50;;;;;;;1.90;1.70;;;17.40;99.90;;;17.69;83.33;100582.78;5021251;28;21056;-64
2023/08/05 00:57:19;;;;;;;1.50;1.33;;;17.40;99.90;;;17.64;83.20;100583.25;5030898;28;21324;-65
2023/08/05 00:59:46;;;;;;;1.53;1.43;;;17.40;99.90;;;17.62;83.47;100584.38;5027138;28;21169;-64
2023/08/05 01:02:13;;;;;;;1.50;1.43;;;17.30;99.90;;;17.61;83.45;100585.38;5026329;28;20671;-64
2023/08/05 01:04:40;;;;;;;1.43;1.33;;;17.30;99.90;;;17.60;83.35;100594.25;5031614;28;20743;-67
2023/08/05 01:07:07;;;;;;;1.90;1.80;;;17.30;99.90;;;17.54;83.66;100581.69;5031388;28;20698;-65
2023/08/05 01:09:34;;;;;;;1.67;1.57;;;17.30;99.90;;;17.50;83.91;100575.09;5019396;28;20731;-65
2023/08/05 01:12:01;;;;;;;1.73;1.63;;;17.20;99.90;;;17.46;84.62;100579.78;5028334;28;20728;-65
2023/08/05 01:14:29;;;;;;;1.50;1.43;;;17.20;99.90;;;17.45;84.69;100582.59;5025509;28;20732;-64
2023/08/05 01:16:56;;;;;;;1.70;1.60;;;17.10;99.90;;;17.43;84.63;100572.22;5031543;28;20706;-63
2023/08/05 01:19:25;;;;;;;1.70;1.47;;;17.10;99.90;;;17.44;84.44;100567.75;5023507;28;20645;-64
2023/08/05 01:22:10;;;;;;;1.27;1.27;;;17.10;99.90;;;17.41;84.51;100568.91;5043004;28;20658;-67
2023/08/05 01:25:06;;;;;;;1.47;1.47;;;17.10;99.90;;;17.40;84.41;100572.50;5030929;28;21185;-64
2023/08/05 01:27:34;;;;;;;1.47;1.40;;;17.10;99.90;;;17.37;85.16;100564.91;5040873;28;21119;-65
2023/08/05 01:30:01;;;;;;;1.17;1.17;;;17.10;99.90;;;17.32;85.24;100558.44;5020739;28;20648;-65
2023/08/05 01:32:28;;;;;;;1.67;1.57;;;17.10;99.90;;;17.27;85.74;100552.81;5030212;28;20747;-65
2023/08/05 01:34:57;;;;;;;1.60;1.50;;;17.00;99.90;;;17.24;85.84;100553.13;5025632;28;21382;-65
2023/08/05 01:37:24;;;;;;;1.97;1.80;;;16.90;99.90;;;17.22;85.61;100557.72;5022641;28;20739;-66
2023/08/05 01:39:51;;;;;;;1.67;1.57;;;17.00;99.90;;;17.21;85.96;100550.78;5016758;28;21207;-65
2023/08/05 01:42:18;;;;;;;2.00;1.90;;;16.90;99.90;;;17.21;85.70;100545.50;5025610;28;20629;-64
2023/08/05 01:44:45;;;;;;;2.90;2.00;;;16.90;99.90;;;17.20;85.93;100557.06;5026426;28;20664;-65
2023/08/05 01:47:12;;;;;;;2.00;1.90;;;16.90;99.90;;;17.17;85.69;100552.06;5027059;28;20680;-64
2023/08/05 01:49:39;;;;;;;1.50;1.40;;;16.90;99.90;;;17.13;85.88;100551.56;5027788;28;20624;-65
2023/08/05 01:52:06;;;;;;;1.33;1.33;;;16.90;99.90;;;17.08;86.03;100557.28;5024597;28;20702;-65
2023/08/05 01:54:33;;;;;;;6.53;1.70;;;16.80;99.90;;;17.06;85.87;100551.34;5028224;28;20983;-64
2023/08/05 01:57:00;;;;;;;1.77;1.67;;;16.80;99.90;;;17.05;85.97;100557.63;5020033;28;20868;-67
2023/08/05 01:59:27;;;;;;;1.80;1.70;;;16.80;99.90;;;17.07;86.51;100562.72;5021776;28;20647;-66
2023/08/05 02:01:53;;;;;;;3.87;1.93;;;16.80;99.90;;;17.04;86.17;100566.50;5029772;28;20624;-64
2023/08/05 02:04:20;;;;;;;4.23;1.60;;;16.80;99.90;;;17.01;86.26;100563.34;5030369;28;20624;-65
2023/08/05 02:06:47;;;;;;;3.50;1.60;;;16.80;99.90;;;16.98;86.51;100561.00;5029718;28;21276;-66
2023/08/05 02:09:15;;;;;;;1.37;1.27;;;16.70;99.90;;;16.97;86.60;100557.53;5026100;28;20621;-66
2023/08/05 02:11:42;;;;;;;1.53;1.40;;;16.70;99.90;;;16.94;86.49;100551.75;5030309;28;21283;-64
2023/08/05 02:14:09;;;;;;;1.33;1.30;;;16.70;99.90;;;16.93;86.59;100552.72;5014649;28;20740;-64
2023/08/05 02:16:36;;;;;;;1.83;1.70;;;16.70;99.90;;;16.90;86.62;100547.75;5010672;28;21197;-64
2023/08/05 02:19:03;;;;;;;1.37;1.27;;;16.60;99.90;;;16.88;86.98;100549.72;5019838;28;20640;-64
2023/08/05 02:21:30;;;;;;;1.50;1.40;;;16.60;99.90;;;16.80;87.37;100542.56;5026583;28;20657;-65
2023/08/05 02:23:57;;;;;;;1.27;1.27;;;16.60;99.90;;;16.76;87.48;100546.50;5029929;28;20638;-65
2023/08/05 02:26:24;;;;;;;1.37;1.30;;;16.50;99.90;;;16.73;87.69;100549.44;5029067;28;21284;-64
2023/08/05 02:28:51;;;;;;;1.63;1.50;;;16.50;99.90;;;16.73;87.82;100549.44;5025797;28;20632;-64
2023/08/05 02:31:18;;;;;;;1.63;1.53;;;16.50;99.90;;;16.72;87.84;100550.41;5026051;28;20723;-65
2023/08/05 02:33:45;;;;;;;1.40;1.40;;;16.50;99.90;;;16.72;87.87;100537.22;5025079;28;20629;-65
2023/08/05 02:36:12;;;;;;;1.33;1.30;;;16.50;99.90;;;16.71;87.75;100532.97;5029835;28;20654;-66
2023/08/05 02:38:39;;;;;;;1.83;1.60;;;16.50;99.90;;;16.66;87.74;100532.56;5025716;28;21040;-65
2023/08/05 02:41:07;;;;;;;1.57;1.47;;;16.40;99.90;;;16.63;87.97;100540.75;5030637;28;20625;-64
2023/08/05 02:43:35;;;;;;;1.63;1.53;;;16.40;99.90;;;16.59;88.01;100533.34;5021422;28;21205;-64
2023/08/05 02:46:01;;;;;;;1.90;1.80;;;16.30;99.90;;;16.56;87.99;100534.47;5026240;28;20664;-66
2023/08/05 02:48:28;;;;;;;2.10;1.90;;;16.30;99.90;;;16.56;87.90;100523.94;5028331;28;20652;-64
2023/08/05 02:50:55;;;;;;;1.73;1.63;;;16.30;99.90;;;16.56;88.37;100513.41;5026106;28;21191;-66
2023/08/05 02:53:23;;;;;;;1.70;1.60;;;16.30;99.90;;;16.59;88.49;100514.91;5019833;28;21023;-63
2023/08/05 02:55:50;;;;;;;1.80;1.70;;;16.30;99.90;;;16.62;88.05;100509.31;5011659;28;20641;-66
2023/08/05 02:58:17;;;;;;;2.20;2.10;;;16.30;99.90;;;16.62;87.92;100518.06;5022561;28;21059;-66
2023/08/05 03:00:45;;;;;;;2.10;2.00;;;16.40;99.90;;;16.65;87.84;100520.38;5024756;28;21294;-65
2023/08/05 03:03:14;;;;;;;1.87;1.77;;;16.40;99.90;;;16.68;87.48;100517.44;5027687;28;20632;-65
2023/08/05 03:05:41;;;;;;;1.93;1.77;;;16.40;99.90;;;16.70;87.52;100515.47;5028830;28;20997;-65
2023/08/05 03:08:10;;;;;;;2.00;1.50;;;16.40;99.90;;;16.72;86.97;100512.69;5028123;28;20647;-65
2023/08/05 03:10:40;;;;;;;1.67;1.57;;;16.50;99.90;;;16.66;86.67;100508.88;5022227;28;20621;-64
2023/08/05 03:13:07;;;;;;;3.50;1.90;;;16.40;99.90;;;16.66;86.66;100511.50;5029684;28;20660;-64
2023/08/05 03:15:34;;;;;;;2.40;1.97;;;16.40;99.90;;;16.65;86.75;100512.47;5027364;28;20660;-65
2023/08/05 03:18:01;;;;;;;2.00;1.80;;;16.40;99.90;;;16.64;87.18;100515.25;5029102;28;20648;-64
2023/08/05 03:20:31;;;;;;;1.70;1.60;;;16.40;99.90;;;16.65;86.72;100519.56;5027314;28;20648;-65
2023/08/05 03:22:58;;;;;;;2.07;1.97;;;16.40;99.90;;;16.62;86.87;100512.78;5030263;28;20631;-65
2023/08/05 03:25:26;;;;;;;1.60;1.50;;;16.30;99.90;;;16.64;87.00;100512.63;5023634;28;20637;-63
2023/08/05 03:27:53;;;;;;;2.77;1.53;;;16.40;99.90;;;16.62;86.57;100515.41;5015273;28;21280;-64
2023/08/05 03:30:20;;;;;;;2.43;1.50;;;16.40;99.90;;;16.59;86.72;100520.97;5022391;28;20666;-64
2023/08/05 03:32:47;;;;;;;1.33;1.30;;;16.30;99.90;;;16.56;86.99;100536.28;5026958;28;20723;-63
2023/08/05 03:35:15;;;;;;;3.53;1.97;;;16.30;99.90;;;16.56;87.17;100531.84;5021592;28;20621;-65
2023/08/05 03:37:44;;;;;;;1.27;1.17;;;16.30;99.90;;;16.55;87.46;100543.34;5026825;28;20659;-65
2023/08/05 03:40:13;;;;;;;1.70;1.50;;;16.30;99.90;;;16.50;87.26;100537.72;5029623;28;20660;-64
2023/08/05 03:42:40;;;;;;;4.03;2.03;;;16.30;99.90;;;16.46;87.76;100533.66;5029949;28;20652;-64
2023/08/05 03:45:09;;;;;;;2.50;1.60;;;16.20;99.90;;;16.39;87.77;100537.91;5022692;28;20639;-63
2023/08/05 03:47:36;;;;;;;1.43;1.20;;;16.10;99.90;;;16.39;88.12;100532.63;5019807;28;21440;-64
2023/08/05 03:50:05;;;;;;;2.33;1.57;;;16.10;99.90;;;16.38;87.89;100533.59;5027207;28;20686;-65
2023/08/05 03:52:32;;;;;;;1.40;1.33;;;16.10;99.90;;;16.36;88.37;100538.19;5027248;28;20636;-63
2023/08/05 03:54:59;;;;;;;1.50;1.40;;;16.10;99.90;;;16.37;88.10;100544.28;5021493;28;20643;-63
2023/08/05 03:57:26;;;;;;;1.53;1.43;;;16.10;99.90;;;16.37;88.64;100560.06;5026775;28;20653;-63
2023/08/05 03:59:53;;;;;;;1.50;1.40;;;16.10;99.90;;;16.35;88.57;100562.03;5025909;28;20647;-63
2023/08/05 04:02:20;;;;;;;2.00;1.90;;;16.10;99.90;;;16.34;88.59;100566.47;5021214;28;20682;-63
2023/08/05 04:04:47;;;;;;;3.50;1.90;;;16.10;99.90;;;16.33;88.88;100583.25;5028563;28;20690;-63
2023/08/05 04:07:18;;;;;;;5.23;1.83;;;16.10;99.90;;;16.33;88.38;100583.25;5029331;28;20707;-63
2023/08/05 04:09:48;;;;;;;2.10;1.83;;;16.00;99.90;;;16.35;88.39;100591.84;5029829;28;20619;-64
2023/08/05 04:12:16;;;;;;;1.80;1.70;;;16.10;99.90;;;16.35;88.45;100583.09;5020870;28;20645;-64
2023/08/05 04:14:43;;;;;;;1.50;1.47;;;16.10;99.90;;;16.37;88.48;100586.41;5024012;28;20644;-64
2023/08/05 04:17:15;;;;;;;2.17;1.97;;;16.10;99.90;;;16.41;88.39;100593.03;5010619;28;20905;-63
2023/08/05 04:19:43;;;;;;;3.63;1.80;;;16.10;99.90;;;16.43;88.27;100585.81;5019480;28;20731;-63
2023/08/05 04:22:10;;;;;;;2.90;1.77;;;16.10;99.90;;;16.44;87.86;100587.47;5018864;28;21062;-64
2023/08/05 04:24:37;;;;;;;1.40;1.40;;;16.20;99.90;;;16.45;88.17;100591.75;5023917;28;20664;-64
2023/08/05 04:27:04;;;;;;;2.90;2.10;;;16.20;99.90;;;16.48;87.71;100594.09;5021057;28;20753;-64
2023/08/05 04:29:31;;;;;;;1.73;1.63;;;16.20;99.90;;;16.56;87.81;100596.84;5028307;28;22181;-65
2023/08/05 04:31:58;;;;;;;1.40;1.40;;;16.30;99.90;;;16.65;87.66;100604.66;5028769;28;20632;-64
2023/08/05 04:34:25;;;;;;;1.60;1.50;;;16.40;99.90;;;16.76;87.08;100601.00;5030902;28;20727;-65
2023/08/05 04:36:52;;;;;;;1.50;1.50;;;16.50;99.90;;;16.90;86.40;100601.31;5032597;28;20656;-64
2023/08/05 04:39:21;;;;;;;3.13;1.90;;;16.60;99.90;;;17.01;85.94;100595.78;5031107;28;20639;-64
2023/08/05 04:41:48;;;;;;;1.87;1.77;;;16.70;99.90;;;17.10;85.67;100595.88;5027848;28;20731;-64
2023/08/05 04:44:15;;;;;;;1.67;1.50;;;16.80;99.90;;;17.18;85.21;100596.75;5032997;28;20648;-65
2023/08/05 04:46:42;;;;;;;1.20;1.20;;;16.90;99.90;;;17.30;84.37;100594.69;5023444;28;20774;-66
2023/08/05 04:49:11;;;;;;;1.40;1.40;;;17.00;99.90;;;17.42;83.86;100606.66;5025819;28;20723;-65
2023/08/05 04:51:38;;;;;;;1.40;1.40;;;17.10;99.90;;;17.51;83.46;100595.19;5018258;28;20646;-64
2023/08/05 04:54:05;;;;;;;2.00;1.90;;;17.20;99.90;;;17.60;82.77;100589.81;5018155;28;20804;-65
2023/08/05 04:56:33;;;;;;;1.80;1.70;;;17.30;99.90;;;17.75;82.44;100592.69;5012956;28;20747;-64
2023/08/05 04:59:00;;;;;;;2.37;1.73;;;17.40;99.90;;;17.90;81.53;100588.50;5019537;28;21015;-64
2023/08/05 05:01:27;;;;;;;1.97;1.87;;;17.60;99.90;;;18.08;80.66;100605.06;5017684;28;21065;-64
2023/08/05 05:03:54;;;;;;;2.20;1.40;;;17.80;99.90;;;18.23;80.14;100597.38;5031519;28;20628;-63
2023/08/05 05:06:24;;;;;;;1.80;1.43;;;17.90;99.90;;;18.44;79.26;100606.53;5030686;28;20628;-64
2023/08/05 05:08:51;;;;;;;4.27;1.50;;;18.10;99.90;;;18.68;78.30;100586.41;5032520;28;20733;-64
2023/08/05 05:11:18;;;;;;;1.10;1.10;;;18.30;99.90;;;18.90;77.11;100596.38;5030215;28;20628;-65
2023/08/05 05:13:50;;;;;;;1.30;1.30;;;18.60;99.90;;;19.11;76.18;100594.91;5032241;28;20620;-65
2023/08/05 05:16:18;;;;;;;2.50;1.40;;;18.80;99.90;;;19.28;75.15;100596.53;5031072;28;20613;-65
2023/08/05 05:18:45;;;;;;;2.10;1.97;;;19.00;99.90;;;19.48;74.62;100583.81;5022585;28;20750;-64
2023/08/05 05:21:11;;;;;;;3.13;2.03;;;19.20;99.90;;;19.70;73.62;100584.91;5031076;28;20626;-68
2023/08/05 05:23:38;;;;;;;1.90;1.80;;;19.40;99.90;;;19.88;73.35;100581.06;5028139;28;21122;-64
2023/08/05 05:26:06;;;;;;;1.60;1.57;;;19.60;99.90;;;20.07;72.88;100583.28;5027548;28;20628;-65
2023/08/05 05:28:33;;;;;;;3.20;2.33;;;19.70;99.90;;;20.39;72.02;100587.63;5030067;28;20714;-64
2023/08/05 05:31:03;;;;;;;1.50;1.40;;;20.00;99.90;;;20.64;70.41;100575.03;5024433;28;21187;-65
2023/08/05 05:33:30;;;;;;;1.27;1.27;;;20.30;99.90;;;20.91;69.70;100587.78;5025697;28;20644;-64
2023/08/05 05:35:57;;;;;;;1.83;1.73;;;20.50;99.90;;;21.22;68.33;100590.34;5021028;28;20630;-64
2023/08/05 05:38:24;;;;;;;2.03;1.67;;;20.80;99.90;;;21.40;67.34;100594.31;5021080;28;20652;-65
2023/08/05 05:40:54;;;;;;;2.37;1.40;;;21.00;99.90;;;21.61;66.58;100590.97;5024333;28;20664;-64
2023/08/05 05:43:21;;;;;;;1.53;1.43;;;21.20;99.90;;;21.81;65.68;100599.19;5023697;28;20694;-64
2023/08/05 05:45:53;;;;;;;1.50;1.40;;;21.40;99.90;;;22.03;65.30;100600.97;5023766;28;20651;-65
2023/08/05 05:48:20;;;;;;;1.80;1.70;;;21.60;99.90;;;22.27;64.13;100598.00;5017607;28;20677;-64
2023/08/05 05:50:51;;;;;;;1.57;1.47;;;21.80;99.90;;;22.56;63.25;100586.47;5029390;28;20720;-65
2023/08/05 05:53:18;;;;;;;1.50;1.47;;;22.10;99.90;;;22.82;62.16;100573.47;5033984;28;20636;-65
2023/08/05 05:55:45;;;;;;;1.93;1.83;;;22.40;99.90;;;23.13;61.97;100585.41;5027037;28;20628;-64
2023/08/05 05:58:13;;;;;;;1.67;1.57;;;22.70;99.90;;;23.59;60.21;100582.31;5029630;28;20663;-68
2023/08/05 06:00:40;;;;;;;3.03;2.03;;;23.00;99.90;;;24.04;59.03;100580.91;5021360;28;21202;-66
2023/08/05 06:03:07;;;;;;;1.77;1.67;;;23.50;99.90;;;24.36;57.92;100588.25;5024614;28;20668;-65
2023/08/05 06:05:34;;;;;;;1.50;1.50;;;23.80;99.90;;;24.68;56.67;100577.63;5024906;28;20629;-67
2023/08/05 06:08:02;;;;;;;2.33;2.20;;;24.20;99.90;;;24.99;55.60;100590.44;5023421;28;20758;-65
2023/08/05 06:10:29;;;;;;;2.13;2.03;;;24.60;99.90;;;25.44;54.81;100582.63;5023302;28;21239;-65
2023/08/05 06:12:57;;;;;;;2.23;2.13;;;25.00;99.90;;;25.82;53.01;100587.09;5015566;28;20743;-65
2023/08/05 06:15:23;;;;;;;1.67;1.57;;;25.40;99.90;;;26.14;52.78;100591.53;5013304;28;20719;-65
2023/08/05 06:17:50;;;;;;;1.90;1.80;;;25.80;99.90;;;26.52;51.66;100590.72;5014561;28;20665;-64
2023/08/05 06:20:18;;;;;;;1.47;1.37;;;;;;;27.00;50.78;100572.31;5011483;28;20644;-67
2023/08/05 06:22:45;;;;;;;2.00;1.80;;;26.50;99.90;;;27.37;49.20;100571.38;5022754;28;20660;-67
2023/08/05 06:25:12;;;;;;;2.33;2.13;;;26.90;99.90;;;27.64;48.82;100581.59;5023858;28;21288;-66
2023/08/05 06:27:39;;;;;;;1.80;1.67;;;27.20;99.90;;;28.04;48.37;100578.53;5028319;28;20779;-66
2023/08/05 06:30:08;;;;;;;2.13;2.00;;;27.60;99.90;;;28.64;46.30;100582.06;5025236;28;20710;-68
2023/08/05 06:32:35;;;;;;;2.03;1.93;;;28.20;99.90;;;29.00;45.38;100587.28;5015893;28;21023;-66
2023/08/05 06:35:02;;;;;;;2.30;2.10;;;28.70;98.40;;;29.41;45.16;100583.75;5016873;28;21264;-65
2023/08/05 06:37:29;;;;;;;2.50;2.30;;;29.00;97.60;;;29.95;44.00;100587.88;5012655;28;21294;-66
2023/08/05 06:39:55;;;;;;;1.97;1.83;;;29.60;96.50;;;30.20;43.29;100591.13;5016014;28;20719;-65
2023/08/05 06:42:24;;;;;;;2.20;2.10;;;29.90;95.60;;;30.71;42.48;100582.94;5013413;28;21191;-65
2023/08/05 06:44:51;;;;;;;2.20;2.10;;;30.20;94.70;;;31.11;41.24;100589.06;5012443;28;20636;-65
2023/08/05 06:47:18;;;;;;;2.47;2.27;;;;;;;31.08;41.30;100565.28;5019640;28;21290;-66
2023/08/05 06:49:45;;;;;;;2.60;2.40;;;30.80;92.40;;;31.13;40.80;100570.75;5016642;28;20735;-65
2023/08/05 06:52:12;;;;;;;1.97;1.87;;;30.70;92.10;;;31.50;40.80;100560.25;5020473;28;20645;-67
2023/08/05 06:54:39;;;;;;;3.40;3.20;;;31.10;91.90;;;32.17;40.05;100560.06;5020489;28;20677;-65
2023/08/05 06:57:06;;;;;;;3.37;3.07;;;31.60;91.00;;;32.85;38.42;100550.22;5020259;28;21239;-66
2023/08/05 06:59:33;;;;;;;2.00;1.90;;;32.30;89.00;;;33.07;37.93;100555.56;5019043;28;20639;-65
2023/08/05 07:02:01;;;;;;;2.40;2.20;;;32.70;86.10;;;33.25;36.91;100555.13;5029310;28;20616;-65
2023/08/05 07:04:28;;;;;;;2.30;1.80;;;32.90;83.70;;;33.30;36.99;100560.56;5016834;28;21202;-65
2023/08/05 07:06:55;;;;;;;2.20;2.10;;;33.00;82.40;;;33.38;37.38;100554.66;5019064;28;20698;-65
2023/08/05 07:09:22;;;;;;;2.37;2.20;;;33.10;81.70;;;33.67;37.06;100548.91;5023369;28;20715;-65
2023/08/05 07:11:49;;;;;;;1.97;1.87;;;33.30;80.90;;;34.03;35.92;100553.41;5028993;28;21146;-65
2023/08/05 07:14:16;;;;;;;2.47;2.30;;;33.70;79.80;;;34.52;35.41;100551.94;5020091;28;21230;-66
2023/08/05 07:16:43;;;;;;;2.80;2.60;;;34.10;78.80;;;35.03;35.04;100539.22;5028382;28;20621;-66
2023/08/05 07:19:10;;;;;;;2.20;2.10;;;34.50;77.50;;;35.37;34.09;100542.13;5025243;28;20625;-64
2023/08/05 07:21:37;;;;;;;2.37;2.23;;;35.00;74.90;;;35.90;33.16;100541.41;5016488;28;20628;-67
2023/08/05 07:24:04;;;;;;;1.80;1.70;;;35.50;73.70;;;36.27;32.76;100536.31;5022897;28;20645;-65
2023/08/05 07:26:32;;;;;;;2.37;2.17;;;35.90;71.90;;;36.41;32.52;100541.94;5020380;28;20668;-65
2023/08/05 07:28:58;;;;;;;3.73;2.60;;;36.20;70.60;;;36.51;32.15;100531.84;5023994;28;20671;-64
2023/08/05 07:31:25;;;;;;;2.37;2.13;;;36.40;68.70;;;36.42;32.73;100533.53;5025725;28;20625;-65
2023/08/05 07:33:52;;;;;;;2.50;2.40;;;36.40;68.20;;;36.68;31.71;100531.44;5022170;28;20669;-64
2023/08/05 07:36:22;;;;;;;2.60;2.50;;;36.60;67.40;;;36.95;31.38;100530.97;5026213;28;20621;-65
2023/08/05 07:38:51;;;;;;;6.70;3.07;;;36.80;66.60;;;37.36;31.05;100534.09;5028742;28;21068;-65
2023/08/05 07:41:20;;;;;;;1.90;1.80;;;37.20;65.30;;;37.38;30.76;100526.47;5025343;28;20632;-65
2023/08/05 07:43:47;;;;;;;2.23;2.13;;;37.40;63.80;;;37.57;31.01;100524.63;5027411;28;20660;-65
2023/08/05 07:46:15;;;;;;;2.80;2.60;;;37.50;63.40;;;37.94;29.89;100527.41;5025405;28;20646;-68
2023/08/05 07:48:45;;;;;;;2.43;2.23;;;37.80;62.70;;;38.19;28.92;100523.50;5021507;28;21237;-66
2023/08/05 07:51:12;;;;;;;1.50;1.50;;;38.10;61.30;;;37.89;29.79;100509.22;5026187;28;21228;-69
2023/08/05 07:53:39;;;;;;;1.90;1.90;;;38.00;60.20;;;37.91;29.45;100506.19;5022571;28;21073;-65
2023/08/05 07:56:14;;;;;;;1.90;1.90;;;38.00;59.90;;;37.79;29.45;100511.25;5018898;28;20639;-65
2023/08/05 07:58:45;;;;;;;2.03;1.93;;;38.00;59.80;;;37.83;29.48;100515.84;5016831;28;21052;-65
2023/08/05 08:01:17;;;;;;;2.17;2.07;;;38.00;59.80;;;38.11;29.35;100513.28;5027842;28;20986;-67
2023/08/05 08:03:45;;;;;;;3.37;3.17;;;38.20;59.10;;;38.44;28.96;100520.44;5020302;28;20636;-68
2023/08/05 08:06:15;;;;;;;6.70;3.50;;;38.40;59.00;;;38.69;28.97;100517.31;5032474;28;20677;-66
2023/08/05 08:08:45;;;;;;;3.33;3.07;;;38.80;58.30;;;38.65;28.39;100516.28;5023062;28;20688;-65
2023/08/05 08:11:13;;;;;;;4.50;3.10;;;38.80;57.20;;;38.96;28.13;100520.09;5021744;28;20861;-68
2023/08/05 08:13:40;;;;;;;3.40;3.20;;;39.00;56.50;;;38.85;27.93;100523.34;5028478;28;20628;-65
2023/08/05 08:16:07;;;;;;;2.87;2.67;;;39.00;56.30;;;38.47;27.94;100508.94;5032647;28;20620;-65
2023/08/05 08:18:34;;;;;;;3.03;2.83;;;38.90;56.00;;;38.52;28.68;100506.13;5025866;28;20727;-66
2023/08/05 08:21:01;;;;;;;3.03;2.80;;;38.80;56.00;;;38.74;28.90;100509.03;5039805;28;20616;-66
2023/08/05 08:23:28;;;;;;;3.20;3.00;;;39.00;56.40;;;38.87;28.14;100508.25;5019621;28;21260;-64
2023/08/05 08:25:59;;;;;;;2.97;2.57;;;39.10;55.90;;;39.19;27.76;100504.69;5020059;28;20625;-66
2023/08/05 08:28:27;;;;;;;2.37;2.27;;;39.30;55.30;;;39.14;27.14;100502.91;5025436;28;20675;-65
2023/08/05 08:30:56;;;;;;;2.57;2.40;;;39.50;54.50;;;38.54;27.73;100499.28;5025065;28;20628;-63
2023/08/05 08:33:27;;;;;;;2.93;2.73;;;39.00;54.50;;;38.40;27.78;100503.84;5020624;28;20740;-65
2023/08/05 08:35:55;;;;;;;2.93;2.70;;;38.80;54.60;;;38.53;28.06;100505.81;5017311;28;21416;-64
2023/08/05 08:38:25;;;;;;;3.17;2.97;;;38.70;54.50;;;38.41;27.76;100499.22;5018871;28;20645;-65
2023/08/05 08:40:57;;;;;;;3.43;3.30;;;38.50;54.40;;;38.65;27.81;100499.91;5031929;28;20739;-64
2023/08/05 08:43:24;;;;;;;2.93;2.73;;;38.80;54.50;;;38.41;27.77;100494.59;5029353;28;20663;-65
2023/08/05 08:45:53;;;;;;;3.97;3.60;;;38.80;53.60;;;38.22;27.90;100485.59;5024288;28;20628;-68
2023/08/05 08:48:20;;;;;;;3.20;3.00;;;38.40;54.20;;;38.78;27.50;100486.31;5027437;28;20672;-65
2023/08/05 08:50:52;;;;;;;2.80;2.60;;;38.80;54.10;;;38.86;26.99;100493.03;5034399;28;20655;-65
2023/08/05 08:53:21;;;;;;;3.77;3.10;;;39.10;53.10;;;38.58;27.48;100488.56;5016420;28;20631;-65
2023/08/05 08:55:48;;;;;;;2.23;2.13;;;38.80;53.30;;;38.16;27.91;100483.25;5024499;28;20715;-66
2023/08/05 08:58:15;;;;;;;2.57;2.47;;;38.30;53.30;;;36.80;28.85;100477.47;5022869;28;20663;-65
2023/08/05 09:00:43;;;;;;;2.60;2.50;;;37.20;54.00;;;35.58;31.09;100468.53;5030843;28;20707;-67
2023/08/05 09:03:10;;;;;;;2.37;2.17;;;35.70;56.10;;;35.11;31.58;100465.44;5026956;28;20680;-66
2023/08/05 09:05:46;;;;;;;1.77;1.77;;;34.90;57.10;;;35.02;32.31;100458.94;5027473;28;20625;-65
2023/08/05 09:08:13;;;;;;;1.87;1.77;;;34.50;58.20;;;34.50;32.24;100455.75;5035537;28;20667;-68
2023/08/05 09:10:43;;;;;;;1.63;1.53;;;34.10;58.50;;;33.49;32.95;100456.28;5030709;28;20636;-65
2023/08/05 09:13:10;;;;;;;1.37;1.37;;;33.20;57.90;;;32.35;34.74;100443.59;5028938;28;20658;-68
2023/08/05 09:15:39;;;;;;;1.53;1.43;;;32.00;59.50;;;31.36;36.95;100434.94;5026717;28;20720;-65
2023/08/05 09:18:08;;;;;;;1.43;1.37;;;31.00;61.60;;;30.44;38.50;100437.34;5026111;28;20675;-66
2023/08/05 09:20:38;;;;;;;1.30;1.30;;;30.10;63.10;;;29.94;39.49;100441.00;5031565;28;20633;-66
2023/08/05 09:23:09;;;;;;;1.23;1.23;;;29.50;64.40;;;29.67;40.43;100438.84;5032581;28;20715;-64
2023/08/05 09:25:41;;;;;;;1.40;1.40;;;29.20;65.60;;;29.13;41.36;100434.75;5026279;28;20636;-65
2023/08/05 09:28:09;;;;;;;1.80;1.50;;;28.80;66.50;;;28.35;42.69;100431.53;5030460;28;20668;-67
2023/08/05 09:30:36;;;;;;;1.33;1.23;;;28.10;68.00;;;27.89;43.25;100430.56;5028863;28;20672;-66
2023/08/05 09:33:04;;;;;;;1.60;1.50;;;27.50;68.90;;;27.64;44.10;100430.72;5024669;28;20720;-65
2023/08/05 09:35:31;;;;;;;5.40;1.20;;;27.20;70.10;;;27.40;45.38;100427.09;5024896;28;20706;-63
2023/08/05 09:38:00;;;;;;;1.87;1.43;;;27.00;71.40;;;27.24;45.38;100422.28;5026944;28;20654;-67
2023/08/05 09:40:33;;;;;;;1.17;1.17;;;26.80;71.70;;;27.06;44.99;100416.94;5023363;28;20630;-64
2023/08/05 09:43:02;;;;;;;1.40;1.40;;;26.60;71.70;;;27.01;45.61;100415.94;5023465;28;20743;-66
2023/08/05 09:45:33;;;;;;;1.23;1.23;;;26.50;72.90;;;26.94;46.33;100409.84;5021176;28;20705;-67
2023/08/05 09:48:09;;;;;;;1.30;1.30;;;26.40;73.70;;;26.86;46.10;100406.41;5021436;28;20862;-66
2023/08/05 09:50:38;;;;;;;1.17;1.17;;;26.40;73.60;;;26.58;46.88;100397.19;5027219;28;20604;-67
2023/08/05 09:53:07;;;;;;;1.77;1.40;;;26.20;74.40;;;26.46;46.41;100398.94;5023050;28;20621;-66
2023/08/05 09:55:38;;;;;;;2.17;2.00;;;26.00;74.10;;;26.35;47.03;100389.78;5023987;28;20644;-67
2023/08/05 09:58:07;;;;;;;1.70;1.70;;;25.90;74.80;;;26.47;47.80;100397.91;5030061;28;20671;-66
2023/08/05 10:00:43;;;;;;;1.30;1.30;;;26.00;76.10;;;26.77;47.46;100389.00;5018447;28;20662;-67
2023/08/05 10:03:13;;;;;;;1.83;1.73;;;26.20;76.60;;;26.84;47.12;100391.63;5019684;28;20612;-66
2023/08/05 10:05:44;;;;;;;1.77;1.67;;;26.40;75.90;;;26.90;46.77;100385.38;5025426;28;20635;-67
2023/08/05 10:08:19;;;;;;;1.60;1.60;;;26.50;75.50;;;27.14;45.84;100389.84;5027206;28;20724;-65
2023/08/05 10:10:48;;;;;;;1.50;1.40;;;26.80;74.60;;;27.67;45.03;100382.00;5019379;28;20631;-66
2023/08/05 10:13:17;;;;;;;1.67;1.67;;;27.50;73.80;;;28.30;43.79;100375.06;5037058;28;20723;-65
2023/08/05 10:15:49;;;;;;;1.30;1.20;;;28.20;72.50;;;28.98;42.07;100378.00;5026653;28;21226;-66